createdAt,value
2023-03-30T00:01:17.233Z,22.80
2023-03-30T00:03:45.764Z,22.80
2023-03-30T00:06:20.987Z,22.80
2023-03-30T00:08:48.805Z,22.90
2023-03-30T00:11:17.241Z,22.90
2023-03-30T00:13:44.982Z,23.00
2023-03-30T00:16:13.967Z,23.00
2023-03-30T00:18:44.948Z,23.10
2023-03-30T00:21:13.005Z,23.10
2023-03-30T00:23:40.982Z,23.10
2023-03-30T00:26:08.734Z,23.20
2023-03-30T00:28:36.462Z,23.30
2023-03-30T00:31:04.313Z,23.30
2023-03-30T00:33:44.779Z,23.40
2023-03-30T00:36:15.560Z,23.40
2023-03-30T00:38:43.883Z,23.40
2023-03-30T00:41:12.160Z,23.50
2023-03-30T00:43:55.597Z,23.60
2023-03-30T00:46:25.002Z,23.70
2023-03-30T00:48:52.993Z,23.60
2023-03-30T00:51:22.020Z,23.70
2023-03-30T00:53:50.861Z,23.80
2023-03-30T00:56:20.481Z,23.80
2023-03-30T00:58:48.316Z,23.90
2023-03-30T01:01:18.764Z,23.90
2023-03-30T01:03:47.874Z,24.00
2023-03-30T01:06:17.837Z,24.00
2023-03-30T01:08:46.913Z,24.10
2023-03-30T01:11:14.736Z,24.20
2023-03-30T01:13:44.388Z,24.20
2023-03-30T01:16:18.899Z,24.30
2023-03-30T01:18:54.627Z,24.30
2023-03-30T01:22:00.150Z,24.40
2023-03-30T01:24:54.740Z,24.50
2023-03-30T01:27:49.653Z,24.50
2023-03-30T01:30:27.603Z,24.60
2023-03-30T01:33:15.966Z,24.70
2023-03-30T01:36:13.732Z,24.80
2023-03-30T01:39:11.643Z,24.80
2023-03-30T01:41:42.974Z,24.90
2023-03-30T01:44:14.829Z,24.90
2023-03-30T01:46:46.008Z,25.00
2023-03-30T01:49:15.240Z,25.10
2023-03-30T01:51:45.530Z,25.20
2023-03-30T01:54:16.815Z,25.30
2023-03-30T01:56:45.538Z,25.40
2023-03-30T01:59:15.349Z,25.40
2023-03-30T02:01:43.179Z,25.50
2023-03-30T02:04:11.179Z,25.50
2023-03-30T02:06:43.058Z,25.60
2023-03-30T02:09:12.261Z,25.60
2023-03-30T02:11:41.933Z,25.60
2023-03-30T02:14:10.249Z,25.70
2023-03-30T02:16:39.198Z,25.80
2023-03-30T02:19:07.737Z,25.80
2023-03-30T02:21:35.946Z,25.90
2023-03-30T02:24:06.602Z,26.00
2023-03-30T02:26:35.483Z,26.00
2023-03-30T02:29:04.488Z,26.10
2023-03-30T02:31:32.301Z,26.20
2023-03-30T02:34:10.883Z,26.10
2023-03-30T02:37:12.404Z,26.30
2023-03-30T02:39:45.248Z,26.30
2023-03-30T02:42:37.530Z,26.30
2023-03-30T02:45:15.251Z,26.40
2023-03-30T02:47:46.148Z,26.40
2023-03-30T02:50:17.875Z,26.50
2023-03-30T02:52:52.343Z,26.50
2023-03-30T02:55:22.523Z,26.50
2023-03-30T02:58:06.120Z,26.60
2023-03-30T03:00:43.828Z,26.60
2023-03-30T03:03:18.842Z,26.60
2023-03-30T03:05:48.444Z,26.60
2023-03-30T03:08:16.424Z,26.70
2023-03-30T03:10:45.612Z,26.70
2023-03-30T03:13:15.030Z,26.70
2023-03-30T03:15:45.275Z,26.70
2023-03-30T03:18:13.803Z,26.70
2023-03-30T03:20:42.726Z,26.70
2023-03-30T03:23:10.729Z,26.70
2023-03-30T03:25:49.267Z,26.80
2023-03-30T03:28:19.362Z,26.80
2023-03-30T03:30:55.206Z,26.70
2023-03-30T03:33:25.714Z,26.70
2023-03-30T03:36:06.457Z,26.80
2023-03-30T03:38:37.499Z,26.80
2023-03-30T03:41:06.789Z,26.80
2023-03-30T03:43:34.706Z,26.80
2023-03-30T03:46:03.833Z,26.80
2023-03-30T03:48:32.164Z,26.70
2023-03-30T03:51:00.296Z,26.70
2023-03-30T03:53:32.222Z,26.70
2023-03-30T03:56:03.837Z,26.70
2023-03-30T03:58:32.164Z,26.60
2023-03-30T04:01:00.601Z,26.60
2023-03-30T04:03:29.772Z,26.50
2023-03-30T04:05:59.833Z,26.50
2023-03-30T04:08:28.396Z,26.50
2023-03-30T04:11:04.857Z,26.50
2023-03-30T04:13:51.405Z,26.50
2023-03-30T04:16:52.091Z,26.40
2023-03-30T04:19:36.444Z,26.40
2023-03-30T04:22:16.305Z,26.30
2023-03-30T04:25:22.884Z,26.30
2023-03-30T04:28:11.635Z,26.30
2023-03-30T04:30:52.412Z,26.30
2023-03-30T04:33:47.400Z,26.30
2023-03-30T04:36:37.806Z,26.20
2023-03-30T04:39:34.278Z,26.20
2023-03-30T04:42:14.088Z,26.20
2023-03-30T04:45:14.078Z,26.20
2023-03-30T04:47:56.049Z,26.10
2023-03-30T04:50:43.700Z,26.10
2023-03-30T04:53:26.285Z,26.10
2023-03-30T04:56:20.110Z,26.00
2023-03-30T04:59:08.113Z,26.00
2023-03-30T05:02:07.678Z,26.00
2023-03-30T05:04:54.021Z,26.00
2023-03-30T05:07:40.676Z,26.00
2023-03-30T05:10:29.976Z,25.90
2023-03-30T05:13:16.284Z,25.90
2023-03-30T05:16:06.763Z,25.90
2023-03-30T05:18:52.206Z,25.80
2023-03-30T05:21:47.512Z,25.80
2023-03-30T05:24:35.470Z,25.80
2023-03-30T05:27:07.677Z,25.80
2023-03-30T05:29:42.149Z,25.70
2023-03-30T05:32:41.999Z,25.70
2023-03-30T05:35:28.285Z,25.60
2023-03-30T05:38:08.315Z,25.70
2023-03-30T05:40:52.872Z,25.60
2023-03-30T05:43:35.340Z,25.70
2023-03-30T05:46:15.856Z,25.60
2023-03-30T05:49:04.817Z,25.60
2023-03-30T05:51:43.002Z,25.60
2023-03-30T05:54:21.792Z,25.60
2023-03-30T05:57:01.322Z,25.50
2023-03-30T05:59:41.945Z,25.50
2023-03-30T06:02:28.213Z,25.50
2023-03-30T06:05:02.248Z,25.50
2023-03-30T06:07:30.488Z,25.50
2023-03-30T06:09:59.567Z,25.40
2023-03-30T06:12:29.084Z,25.40
2023-03-30T06:14:58.185Z,25.40
2023-03-30T06:17:31.682Z,25.40
2023-03-30T06:19:59.914Z,25.30
2023-03-30T06:22:31.285Z,25.30
2023-03-30T06:25:05.841Z,25.40
2023-03-30T06:27:33.536Z,25.50
2023-03-30T06:30:03.604Z,25.50
2023-03-30T06:32:31.589Z,25.60
2023-03-30T06:35:18.566Z,25.60
2023-03-30T06:37:46.308Z,25.60
2023-03-30T06:40:15.911Z,25.70
2023-03-30T06:42:47.770Z,25.70
2023-03-30T06:45:23.853Z,25.70
2023-03-30T06:47:51.661Z,25.80
2023-03-30T06:50:19.512Z,25.90
2023-03-30T06:53:01.613Z,25.90
2023-03-30T06:55:36.390Z,26.00
2023-03-30T06:58:04.140Z,26.10
2023-03-30T07:00:33.209Z,26.10
2023-03-30T07:03:20.150Z,26.10
2023-03-30T07:05:58.501Z,26.10
2023-03-30T07:08:34.374Z,26.10
2023-03-30T07:11:02.283Z,25.90
2023-03-30T07:13:33.048Z,25.80
2023-03-30T07:16:02.056Z,25.70
2023-03-30T07:18:32.392Z,25.60
2023-03-30T07:21:00.561Z,25.40
2023-03-30T07:23:40.406Z,25.30
2023-03-30T07:26:08.958Z,25.30
2023-03-30T07:28:43.344Z,25.20
2023-03-30T07:31:14.192Z,25.20
2023-03-30T07:33:44.475Z,25.10
2023-03-30T07:36:15.734Z,25.10
2023-03-30T07:38:43.745Z,25.20
2023-03-30T07:41:12.654Z,25.20
2023-03-30T07:43:41.474Z,25.30
2023-03-30T07:46:10.138Z,25.30
2023-03-30T07:48:41.661Z,25.30
2023-03-30T07:51:11.032Z,25.30
2023-03-30T07:53:48.105Z,25.20
2023-03-30T07:56:23.378Z,25.10
2023-03-30T07:58:54.611Z,25.00
2023-03-30T08:01:27.353Z,25.20
2023-03-30T08:04:19.305Z,25.10
2023-03-30T08:06:47.369Z,25.10
2023-03-30T08:09:15.274Z,25.10
2023-03-30T08:11:43.080Z,25.20
2023-03-30T08:14:10.918Z,26.20
2023-03-30T08:16:38.649Z,25.60
2023-03-30T08:19:06.439Z,25.60
2023-03-30T08:21:35.458Z,25.70
2023-03-30T08:24:03.124Z,25.40
2023-03-30T08:26:30.875Z,25.20
2023-03-30T08:28:59.112Z,25.10
2023-03-30T08:31:26.957Z,25.30
2023-03-30T08:33:54.690Z,25.00
2023-03-30T08:36:22.401Z,25.10
2023-03-30T08:38:51.856Z,24.90
2023-03-30T08:41:33.957Z,24.90
2023-03-30T08:44:02.067Z,25.00
2023-03-30T08:46:29.972Z,24.80
2023-03-30T08:48:59.720Z,24.70
2023-03-30T08:51:29.057Z,24.70
2023-03-30T08:53:59.071Z,24.80
2023-03-30T08:56:28.273Z,25.00
2023-03-30T08:59:00.111Z,24.80
2023-03-30T09:01:35.647Z,24.70
2023-03-30T09:04:08.698Z,24.70
2023-03-30T09:06:44.700Z,24.70
2023-03-30T09:09:14.982Z,24.80
2023-03-30T09:11:42.889Z,24.80
2023-03-30T09:14:13.742Z,24.90
2023-03-30T09:16:45.069Z,25.00
2023-03-30T09:19:15.158Z,25.10
2023-03-30T09:21:42.826Z,25.10
2023-03-30T09:24:15.980Z,25.20
2023-03-30T09:26:46.165Z,25.30
2023-03-30T09:29:16.934Z,25.30
2023-03-30T09:31:45.778Z,25.20
2023-03-30T09:34:18.806Z,25.30
2023-03-30T09:36:48.567Z,25.30
2023-03-30T09:39:20.061Z,25.20
2023-03-30T09:42:00.946Z,25.20
2023-03-30T09:44:32.405Z,25.30
2023-03-30T09:47:00.282Z,25.20
2023-03-30T09:49:28.557Z,25.20
2023-03-30T09:51:58.015Z,25.20
2023-03-30T09:54:27.361Z,25.20
2023-03-30T09:56:56.885Z,25.20
2023-03-30T09:59:30.525Z,25.20
2023-03-30T10:02:12.004Z,25.30
2023-03-30T10:05:00.236Z,25.30
2023-03-30T10:07:30.068Z,25.30
2023-03-30T10:10:00.718Z,25.30
2023-03-30T10:12:28.676Z,25.30
2023-03-30T10:14:56.743Z,25.30
2023-03-30T10:17:25.627Z,25.30
2023-03-30T10:20:03.616Z,25.30
2023-03-30T10:22:39.446Z,25.40
2023-03-30T10:25:15.202Z,25.30
2023-03-30T10:27:45.490Z,25.50
2023-03-30T10:30:18.664Z,25.40
2023-03-30T10:32:46.765Z,25.40
2023-03-30T10:35:18.463Z,25.40
2023-03-30T10:37:47.700Z,25.40
2023-03-30T10:40:19.988Z,25.30
2023-03-30T10:42:47.796Z,25.40
2023-03-30T10:45:17.381Z,25.40
2023-03-30T10:47:53.834Z,25.40
2023-03-30T10:50:26.794Z,25.40
2023-03-30T10:53:00.060Z,25.40
2023-03-30T10:55:31.745Z,25.40
2023-03-30T10:58:02.095Z,25.40
2023-03-30T11:00:33.788Z,25.40
2023-03-30T11:03:05.650Z,25.40
2023-03-30T11:05:35.555Z,25.40
2023-03-30T11:08:03.941Z,25.40
2023-03-30T11:10:33.816Z,25.40
2023-03-30T11:13:03.246Z,25.50
2023-03-30T11:15:34.237Z,25.50
2023-03-30T11:18:05.320Z,25.60
2023-03-30T11:20:34.330Z,25.60
2023-03-30T11:23:06.800Z,25.60
2023-03-30T11:25:40.168Z,25.70
2023-03-30T11:28:14.218Z,25.70
2023-03-30T11:30:42.083Z,25.70
2023-03-30T11:33:17.667Z,25.70
2023-03-30T11:35:47.372Z,25.80
2023-03-30T11:38:16.862Z,25.80
2023-03-30T11:40:47.412Z,25.80
2023-03-30T11:43:15.607Z,25.80
2023-03-30T11:45:54.022Z,25.70
2023-03-30T11:48:52.965Z,25.80
2023-03-30T11:51:29.406Z,25.80
2023-03-30T11:53:59.891Z,25.80
2023-03-30T11:56:32.991Z,25.80
2023-03-30T11:59:04.831Z,25.80
2023-03-30T12:01:51.671Z,25.80
2023-03-30T12:04:21.858Z,25.90
2023-03-30T12:06:51.663Z,25.90
2023-03-30T12:09:25.466Z,26.00
2023-03-30T12:12:03.108Z,26.00
2023-03-30T12:14:42.676Z,26.00
2023-03-30T12:17:16.623Z,25.90
2023-03-30T12:19:55.469Z,25.90
2023-03-30T12:22:26.178Z,25.80
2023-03-30T12:24:55.654Z,25.80
2023-03-30T12:27:24.726Z,25.80
2023-03-30T12:32:26.998Z,25.70
2023-03-30T12:34:56.180Z,25.70
2023-03-30T12:37:26.564Z,25.60
2023-03-30T12:39:55.952Z,25.60
2023-03-30T12:42:34.207Z,25.60
2023-03-30T12:45:21.239Z,25.60
2023-03-30T12:47:54.895Z,25.60
2023-03-30T12:50:36.115Z,25.60
2023-03-30T12:53:21.015Z,25.80
2023-03-30T12:55:52.293Z,25.80
2023-03-30T12:58:37.880Z,25.80
2023-03-30T13:01:13.403Z,25.90
2023-03-30T13:03:42.669Z,25.90
2023-03-30T13:06:16.717Z,25.80
2023-03-30T13:08:44.543Z,25.90
2023-03-30T13:11:14.528Z,25.90
2023-03-30T13:13:51.895Z,25.80
2023-03-30T13:16:47.936Z,25.90
2023-03-30T13:19:23.457Z,25.80
2023-03-30T13:21:56.208Z,25.80
2023-03-30T13:24:28.386Z,25.90
2023-03-30T13:27:02.553Z,25.80
2023-03-30T13:29:31.566Z,25.80
2023-03-30T13:32:04.704Z,25.70
2023-03-30T13:35:06.176Z,25.70
2023-03-30T13:37:49.989Z,25.80
2023-03-30T13:40:27.394Z,25.70
2023-03-30T13:43:06.355Z,25.70
2023-03-30T13:45:37.878Z,25.70
2023-03-30T13:48:23.452Z,25.70
2023-03-30T13:50:53.056Z,25.70
2023-03-30T13:53:20.946Z,25.60
2023-03-30T13:55:49.451Z,25.60
2023-03-30T13:58:18.414Z,25.60
2023-03-30T14:00:49.655Z,25.60
2023-03-30T14:03:31.379Z,25.60
2023-03-30T14:06:04.031Z,25.60
2023-03-30T14:08:35.365Z,25.50
2023-03-30T14:11:05.419Z,25.50
2023-03-30T14:13:33.762Z,25.50
2023-03-30T14:16:02.924Z,25.50
2023-03-30T14:18:30.753Z,25.50
2023-03-30T14:20:59.184Z,25.50
2023-03-30T14:23:32.298Z,25.40
2023-03-30T14:26:00.322Z,25.40
2023-03-30T14:28:28.382Z,25.30
2023-03-30T14:30:57.088Z,25.20
2023-03-30T14:33:26.348Z,25.30
2023-03-30T14:35:56.395Z,25.20
2023-03-30T14:38:25.668Z,25.20
2023-03-30T14:40:54.021Z,25.30
2023-03-30T14:43:24.430Z,25.30
2023-03-30T14:45:52.421Z,25.30
2023-03-30T14:48:23.733Z,25.50
2023-03-30T14:50:52.810Z,25.50
2023-03-30T14:53:24.227Z,25.60
2023-03-30T14:55:58.016Z,25.60
2023-03-30T14:58:26.570Z,25.60
2023-03-30T15:00:56.432Z,25.60
2023-03-30T15:03:33.490Z,25.60
2023-03-30T15:06:04.645Z,25.50
2023-03-30T15:08:33.144Z,25.40
2023-03-30T15:11:01.819Z,25.50
2023-03-30T15:13:33.146Z,25.50
2023-03-30T15:16:01.000Z,25.40
2023-03-30T15:18:29.485Z,25.40
2023-03-30T15:20:57.282Z,25.40
2023-03-30T15:23:26.508Z,25.40
2023-03-30T15:25:54.294Z,25.40
2023-03-30T15:28:22.024Z,25.40
2023-03-30T15:30:51.553Z,25.40
2023-03-30T15:33:23.943Z,25.50
2023-03-30T15:35:52.632Z,25.50
2023-03-30T15:38:20.946Z,25.50
2023-03-30T15:40:50.964Z,25.40
2023-03-30T15:43:19.847Z,25.30
2023-03-30T15:45:52.404Z,25.30
2023-03-30T15:48:22.267Z,25.20
2023-03-30T15:50:52.398Z,25.20
2023-03-30T15:53:21.577Z,25.20
2023-03-30T15:55:52.432Z,25.30
2023-03-30T15:58:21.438Z,25.30
2023-03-30T16:00:49.171Z,25.20
2023-03-30T16:03:20.337Z,25.20
2023-03-30T16:05:47.978Z,25.20
2023-03-30T16:08:15.835Z,25.20
2023-03-30T16:10:43.483Z,25.30
2023-03-30T16:13:12.464Z,25.40
2023-03-30T16:15:40.437Z,25.30
2023-03-30T16:18:08.146Z,25.30
2023-03-30T16:20:35.931Z,25.30
2023-03-30T16:23:04.382Z,25.20
2023-03-30T16:25:44.031Z,25.20
2023-03-30T16:28:15.851Z,25.20
2023-03-30T16:30:43.706Z,25.10
2023-03-30T16:33:11.424Z,25.00
2023-03-30T16:35:39.245Z,24.90
2023-03-30T16:38:06.928Z,25.00
2023-03-30T16:40:36.757Z,25.00
2023-03-30T16:43:04.474Z,24.80
2023-03-30T16:45:33.597Z,24.80
2023-03-30T16:48:01.347Z,24.80
2023-03-30T16:50:32.708Z,24.80
2023-03-30T16:53:00.654Z,24.80
2023-03-30T16:55:28.338Z,24.70
2023-03-30T16:57:56.017Z,24.70
2023-03-30T17:00:25.344Z,24.60
2023-03-30T17:02:54.472Z,24.50
2023-03-30T17:05:22.440Z,24.50
2023-03-30T17:07:52.079Z,24.50
2023-03-30T17:10:25.313Z,24.50
2023-03-30T17:12:53.212Z,24.60
2023-03-30T17:15:21.339Z,24.70
2023-03-30T17:17:49.171Z,24.70
2023-03-30T17:20:30.340Z,24.70
2023-03-30T17:22:58.019Z,24.70
2023-03-30T17:25:26.501Z,24.70
2023-03-30T17:27:55.249Z,24.70
2023-03-30T17:30:24.881Z,24.60
2023-03-30T17:32:54.859Z,24.50
2023-03-30T17:35:23.037Z,24.50
2023-03-30T17:37:52.277Z,24.60
2023-03-30T17:40:22.133Z,24.60
2023-03-30T17:42:49.935Z,24.60
2023-03-30T17:45:18.535Z,24.60
2023-03-30T17:47:46.367Z,24.60
2023-03-30T17:50:21.555Z,24.50
2023-03-30T17:52:49.287Z,24.50
2023-03-30T17:55:18.925Z,24.50
2023-03-30T17:57:46.669Z,24.30
2023-03-30T18:00:18.274Z,24.30
2023-03-30T18:02:46.185Z,24.30
2023-03-30T18:05:14.068Z,24.30
2023-03-30T18:07:41.830Z,24.20
2023-03-30T18:10:22.121Z,24.20
2023-03-30T18:12:49.874Z,24.20
2023-03-30T18:15:18.657Z,24.10
2023-03-30T18:17:46.480Z,24.10
2023-03-30T18:20:19.393Z,24.10
2023-03-30T18:22:47.192Z,24.10
2023-03-30T18:25:25.537Z,24.00
2023-03-30T18:27:58.657Z,24.00
2023-03-30T18:30:28.361Z,24.00
2023-03-30T18:32:56.535Z,24.00
2023-03-30T18:35:25.236Z,24.00
2023-03-30T18:37:53.924Z,24.00
2023-03-30T18:40:23.833Z,23.90
2023-03-30T18:42:51.654Z,23.90
2023-03-30T18:45:22.036Z,23.90
2023-03-30T18:47:49.791Z,23.90
2023-03-30T18:50:19.928Z,23.80
2023-03-30T18:52:47.668Z,23.80
2023-03-30T18:55:16.111Z,23.80
2023-03-30T18:57:43.953Z,23.80
2023-03-30T19:00:19.817Z,23.80
2023-03-30T19:02:49.111Z,23.80
2023-03-30T19:05:18.100Z,23.80
2023-03-30T19:07:45.841Z,23.80
2023-03-30T19:10:14.657Z,23.80
2023-03-30T19:12:42.377Z,23.70
2023-03-30T19:15:16.853Z,23.70
2023-03-30T19:17:44.545Z,23.80
2023-03-30T19:20:14.294Z,23.70
2023-03-30T19:22:41.978Z,23.80
2023-03-30T19:25:10.561Z,23.70
2023-03-30T19:27:39.611Z,23.60
2023-03-30T19:30:10.817Z,23.60
2023-03-30T19:32:38.756Z,23.60
2023-03-30T19:35:07.625Z,23.60
2023-03-30T19:37:36.720Z,23.60
2023-03-30T19:40:06.029Z,23.60
2023-03-30T19:42:33.759Z,23.50
2023-03-30T19:45:01.622Z,23.50
2023-03-30T19:47:31.710Z,23.50
2023-03-30T19:49:59.638Z,23.50
2023-03-30T19:52:27.333Z,23.50
2023-03-30T19:54:56.322Z,23.40
2023-03-30T19:57:24.109Z,23.40
2023-03-30T19:59:52.636Z,23.40
2023-03-30T20:02:20.526Z,23.40
2023-03-30T20:04:48.258Z,23.30
2023-03-30T20:07:16.754Z,23.40
2023-03-30T20:09:44.520Z,23.30
2023-03-30T20:12:13.665Z,23.30
2023-03-30T20:14:41.340Z,23.30
2023-03-30T20:17:11.299Z,23.30
2023-03-30T20:19:40.685Z,23.20
2023-03-30T20:22:09.143Z,23.30
2023-03-30T20:24:38.936Z,23.20
2023-03-30T20:27:07.173Z,23.20
2023-03-30T20:29:36.952Z,23.20
2023-03-30T20:32:05.498Z,23.20
2023-03-30T20:34:33.598Z,23.20
2023-03-30T20:37:01.290Z,23.20
2023-03-30T20:39:28.977Z,23.20
2023-03-30T20:41:58.801Z,23.20
2023-03-30T20:44:32.372Z,23.20
2023-03-30T20:47:02.541Z,23.20
2023-03-30T20:49:31.985Z,23.20
2023-03-30T20:52:00.777Z,23.20
2023-03-30T20:54:28.552Z,23.20
2023-03-30T20:56:56.285Z,23.20
2023-03-30T20:59:24.043Z,23.20
2023-03-30T21:01:52.050Z,23.20
2023-03-30T21:04:21.736Z,23.20
2023-03-30T21:06:49.549Z,23.20
2023-03-30T21:09:17.572Z,23.30
2023-03-30T21:11:45.376Z,23.20
2023-03-30T21:14:13.693Z,23.20
2023-03-30T21:16:42.318Z,23.20
2023-03-30T21:19:10.267Z,23.30
2023-03-30T21:21:39.416Z,23.20
2023-03-30T21:24:08.666Z,23.30
2023-03-30T21:26:36.817Z,23.20
2023-03-30T21:29:04.681Z,23.30
2023-03-30T21:31:32.418Z,23.30
2023-03-30T21:34:00.790Z,23.30
2023-03-30T21:36:28.557Z,23.30
2023-03-30T21:38:59.304Z,23.30
2023-03-30T21:41:28.721Z,23.30
2023-03-30T21:43:56.462Z,23.30
2023-03-30T21:46:25.089Z,23.30
2023-03-30T21:48:54.017Z,23.30
2023-03-30T21:51:22.826Z,23.30
2023-03-30T21:53:51.464Z,23.30
2023-03-30T21:56:21.942Z,23.40
2023-03-30T21:58:49.620Z,23.30
2023-03-30T22:01:17.557Z,23.30
2023-03-30T22:03:45.804Z,23.30
2023-03-30T22:06:14.652Z,23.30
2023-03-30T22:08:42.474Z,23.40
2023-03-30T22:11:11.999Z,23.40
2023-03-30T22:13:41.109Z,23.40
2023-03-30T22:16:12.467Z,23.40
2023-03-30T22:18:40.316Z,23.40
2023-03-30T22:21:08.661Z,23.40
2023-03-30T22:23:36.447Z,23.40
2023-03-30T22:26:04.289Z,23.40
2023-03-30T22:28:32.094Z,23.40
2023-03-30T22:31:01.130Z,23.40
2023-03-30T22:33:28.848Z,23.40
2023-03-30T22:35:57.405Z,23.40
2023-03-30T22:38:25.302Z,23.50
2023-03-30T22:40:53.009Z,23.50
2023-03-30T22:43:20.782Z,23.50
2023-03-30T22:45:48.486Z,23.50
2023-03-30T22:48:17.530Z,23.50
2023-03-30T22:50:45.534Z,23.60
2023-03-30T22:53:13.206Z,23.60
2023-03-30T22:55:41.394Z,23.60
2023-03-30T22:58:11.412Z,23.60
2023-03-30T23:00:39.119Z,23.60
2023-03-30T23:03:06.881Z,23.60
2023-03-30T23:05:35.990Z,23.60
2023-03-30T23:08:03.713Z,23.60
2023-03-30T23:10:33.567Z,23.70
2023-03-30T23:13:01.402Z,23.60
2023-03-30T23:15:29.807Z,23.70
2023-03-30T23:17:57.761Z,23.70
2023-03-30T23:20:25.489Z,23.70
2023-03-30T23:22:54.446Z,23.70
2023-03-30T23:25:22.125Z,23.70
2023-03-30T23:27:49.802Z,23.70
2023-03-30T23:30:17.663Z,23.70
2023-03-30T23:32:45.353Z,23.70
2023-03-30T23:35:13.046Z,23.80
2023-03-30T23:37:40.903Z,23.80
2023-03-30T23:40:10.798Z,23.80
2023-03-30T23:42:38.433Z,23.80
2023-03-30T23:45:07.223Z,23.80
2023-03-30T23:47:34.953Z,23.80
2023-03-30T23:50:02.642Z,23.90
2023-03-30T23:52:30.788Z,23.90
2023-03-30T23:55:01.725Z,23.90
2023-03-30T23:57:31.007Z,23.90
2023-03-30T23:59:58.732Z,23.90
